Time;durP1;ratioP1;P1;durP2;ratioP2;P2;SDS_P1;SDS_P2;PMS_P1;PMS_P2;Temp;Humidity;BMP_temperature;BMP_pressure;BME280_temperature;BME280_humidity;BME280_pressure;Samples;Min_cycle;Max_cycle;Signal;HPM_P1;HPM_P2
2022/09/01 00:01:42;;;;;;;2.00;1.20;;;19.80;81.60;;;;;;5032431;28;20218;-78
2022/09/01 00:04:12;;;;;;;2.97;1.35;;;19.70;82.10;;;;;;5036411;28;20210;-78
2022/09/01 00:06:40;;;;;;;1.40;1.08;;;19.60;81.70;;;;;;5032059;28;20217;-78
2022/09/01 00:09:10;;;;;;;4.20;1.42;;;19.60;81.80;;;;;;5049557;28;20190;-78
2022/09/01 00:11:40;;;;;;;1.33;1.17;;;19.50;82.30;;;;;;5032227;28;20230;-77
2022/09/01 00:14:09;;;;;;;1.00;0.90;;;19.60;82.10;;;;;;5032839;28;20656;-78
2022/09/01 00:16:37;;;;;;;1.67;1.00;;;19.50;81.80;;;;;;5034348;28;20226;-77
2022/09/01 00:19:05;;;;;;;4.40;1.35;;;19.60;83.00;;;;;;5050707;28;20206;-78
2022/09/01 00:21:35;;;;;;;1.92;1.17;;;19.60;82.20;;;;;;5051391;28;20211;-77
2022/09/01 00:24:04;;;;;;;3.00;1.23;;;19.60;81.90;;;;;;5030673;28;20198;-78
2022/09/01 00:26:31;;;;;;;1.40;1.10;;;19.50;82.50;;;;;;5050144;28;20202;-78
2022/09/01 00:29:00;;;;;;;2.95;1.25;;;19.30;83.50;;;;;;5050703;28;20210;-79
2022/09/01 00:31:28;;;;;;;1.70;1.50;;;19.50;84.10;;;;;;5030154;28;20219;-78
2022/09/01 00:33:55;;;;;;;2.50;1.30;;;19.60;84.20;;;;;;5033480;28;20675;-78
2022/09/01 00:36:24;;;;;;;2.47;1.85;;;19.70;82.90;;;;;;5047949;28;20198;-78
2022/09/01 00:38:53;;;;;;;2.25;1.42;;;19.50;83.20;;;;;;5053522;28;20201;-79
2022/09/01 00:41:23;;;;;;;1.75;1.05;;;19.60;83.50;;;;;;5050408;28;20221;-80
2022/09/01 00:43:52;;;;;;;2.08;1.30;;;19.50;83.50;;;;;;5050934;28;20296;-78
2022/09/01 00:46:23;;;;;;;1.52;1.20;;;19.40;83.90;;;;;;5032516;28;20539;-78
2022/09/01 00:48:56;;;;;;;3.38;1.20;;;19.40;84.30;;;;;;5047224;28;20652;-78
2022/09/01 00:51:24;;;;;;;1.77;0.90;;;19.30;85.00;;;;;;5030672;28;20232;-79
2022/09/01 00:53:54;;;;;;;3.67;1.30;;;19.30;85.50;;;;;;5038666;28;20205;-78
2022/09/01 00:56:22;;;;;;;1.42;1.15;;;19.10;85.70;;;;;;5033125;28;20584;-78
2022/09/01 00:58:51;;;;;;;1.70;1.20;;;19.10;86.70;;;;;;5048334;28;20214;-79
2022/09/01 01:01:22;;;;;;;1.27;1.05;;;19.10;87.10;;;;;;5046452;28;20221;-80
2022/09/01 01:03:49;;;;;;;1.38;0.90;;;19.10;87.40;;;;;;5033666;28;20207;-78
2022/09/01 01:06:18;;;;;;;3.92;1.15;;;18.90;88.00;;;;;;5031237;28;20195;-78
2022/09/01 01:08:56;;;;;;;1.60;1.50;;;19.00;88.50;;;;;;5030378;28;20201;-78
2022/09/01 01:11:27;;;;;;;3.00;1.00;;;19.10;88.80;;;;;;5026941;28;20574;-77
2022/09/01 01:13:57;;;;;;;3.28;1.35;;;19.20;88.90;;;;;;5042827;28;20202;-78
2022/09/01 01:16:28;;;;;;;2.03;1.05;;;19.30;87.70;;;;;;5034041;28;20205;-78
2022/09/01 01:18:56;;;;;;;3.63;1.40;;;19.40;87.20;;;;;;5031547;28;20222;-78
2022/09/01 01:24:22;;;;;;;1.40;1.10;;;19.40;86.90;;;;;;5040719;28;20273;-79
2022/09/01 01:26:50;;;;;;;2.15;1.30;;;19.40;86.90;;;;;;5031155;28;20202;-78
2022/09/01 01:29:20;;;;;;;3.45;1.42;;;19.50;86.90;;;;;;5031449;28;20210;-78
2022/09/01 01:31:50;;;;;;;2.33;1.38;;;19.40;86.30;;;;;;5043494;28;20218;-77
2022/09/01 01:34:19;;;;;;;1.83;1.20;;;19.40;86.90;;;;;;5043488;28;20195;-79
2022/09/01 01:36:48;;;;;;;2.53;1.30;;;18.90;87.40;;;;;;5031907;28;20202;-78
2022/09/01 01:39:19;;;;;;;1.83;1.00;;;18.70;90.00;;;;;;5040080;28;20237;-78
2022/09/01 01:41:49;;;;;;;1.98;1.20;;;18.60;90.60;;;;;;5031875;28;20218;-78
2022/09/01 01:44:21;;;;;;;3.72;1.50;;;18.60;90.70;;;;;;5033656;28;20203;-78
2022/09/01 01:46:50;;;;;;;2.22;1.20;;;18.50;90.90;;;;;;5045413;28;20198;-78
2022/09/01 01:49:20;;;;;;;1.70;1.17;;;18.50;91.50;;;;;;5030791;28;20205;-78
2022/09/01 01:51:53;;;;;;;4.30;1.45;;;18.60;91.30;;;;;;5045300;28;20680;-78
2022/09/01 01:54:22;;;;;;;2.85;1.23;;;18.60;91.50;;;;;;5050802;28;20205;-77
2022/09/01 01:56:51;;;;;;;1.85;1.15;;;18.50;91.60;;;;;;5031445;28;20214;-78
2022/09/01 01:59:19;;;;;;;2.67;1.20;;;18.40;91.50;;;;;;5033255;28;20226;-78
2022/09/01 02:01:51;;;;;;;1.73;1.20;;;18.30;92.30;;;;;;5027401;28;20221;-77
2022/09/01 02:04:19;;;;;;;1.58;1.17;;;18.10;92.80;;;;;;5033970;28;20195;-77
2022/09/01 02:06:50;;;;;;;1.30;1.20;;;18.10;93.40;;;;;;5028739;28;20194;-78
2022/09/01 02:09:22;;;;;;;2.78;1.23;;;18.10;93.20;;;;;;5075185;23;20584;-78
2022/09/01 02:11:53;;;;;;;1.73;1.45;;;18.20;93.40;;;;;;5063930;28;20206;-78
2022/09/01 02:14:20;;;;;;;4.03;1.45;;;18.20;93.10;;;;;;5052639;28;20194;-78
2022/09/01 02:16:48;;;;;;;2.22;1.33;;;18.10;93.40;;;;;;5066446;28;20210;-78
2022/09/01 02:19:19;;;;;;;1.90;1.30;;;18.10;93.20;;;;;;5051151;28;20708;-78
2022/09/01 02:21:54;;;;;;;1.63;1.15;;;18.10;93.30;;;;;;5051497;28;20202;-78
2022/09/01 02:24:23;;;;;;;1.42;0.93;;;18.10;93.40;;;;;;5047724;28;20648;-78
2022/09/01 02:26:53;;;;;;;2.03;1.20;;;18.10;92.90;;;;;;5051955;28;20206;-78
2022/09/01 02:29:25;;;;;;;2.33;1.33;;;18.00;93.60;;;;;;5069153;28;20217;-78
2022/09/01 02:31:54;;;;;;;4.65;1.58;;;18.00;93.70;;;;;;5067965;28;20202;-78
2022/09/01 02:34:23;;;;;;;4.00;1.30;;;17.90;93.90;;;;;;5067350;28;20198;-78
2022/09/01 02:36:55;;;;;;;1.17;1.05;;;17.70;94.40;;;;;;5067264;28;20556;-78
2022/09/01 02:39:27;;;;;;;1.88;1.33;;;17.60;95.00;;;;;;5052465;28;20230;-78
2022/09/01 02:41:57;;;;;;;1.90;1.27;;;17.80;94.30;;;;;;5050489;28;20198;-78
2022/09/01 02:44:28;;;;;;;2.38;1.40;;;17.70;94.90;;;;;;5050627;28;20201;-78
2022/09/01 02:46:56;;;;;;;1.25;1.15;;;17.80;94.30;;;;;;5053805;28;20201;-78
2022/09/01 02:49:27;;;;;;;3.60;1.70;;;17.70;95.00;;;;;;5069191;28;20680;-78
2022/09/01 02:51:58;;;;;;;1.95;1.30;;;17.70;95.00;;;;;;5041436;28;20587;-78
2022/09/01 02:54:27;;;;;;;5.28;1.48;;;17.70;95.00;;;;;;5065058;28;20195;-78
2022/09/01 02:56:56;;;;;;;3.20;1.23;;;17.80;95.00;;;;;;5043987;28;20214;-78
2022/09/01 02:59:27;;;;;;;2.20;1.23;;;17.40;95.40;;;;;;5048805;28;20222;-78
2022/09/01 03:02:00;;;;;;;1.90;1.23;;;17.50;95.90;;;;;;5044028;28;20193;-78
2022/09/01 03:04:34;;;;;;;3.42;1.33;;;17.60;96.00;;;;;;5048174;28;20751;-78
2022/09/01 03:07:02;;;;;;;2.35;1.50;;;17.80;95.60;;;;;;5049334;28;20198;-78
2022/09/01 03:09:31;;;;;;;2.50;1.67;;;17.80;95.30;;;;;;5043813;28;20229;-78
2022/09/01 03:12:00;;;;;;;2.83;1.60;;;17.90;95.00;;;;;;5061332;28;20198;-78
2022/09/01 03:14:28;;;;;;;1.98;1.42;;;17.90;94.80;;;;;;5043442;28;20206;-78
2022/09/01 03:16:59;;;;;;;1.77;1.42;;;18.00;94.60;;;;;;5044891;28;20194;-78
2022/09/01 03:19:42;;;;;;;2.63;1.67;;;17.90;94.80;;;;;;5045896;28;20691;-78
2022/09/01 03:22:10;;;;;;;1.58;1.33;;;17.90;95.30;;;;;;5063092;28;20199;-78
2022/09/01 03:24:39;;;;;;;2.20;1.33;;;17.90;94.80;;;;;;5062897;28;20198;-78
2022/09/01 03:27:10;;;;;;;1.70;1.38;;;17.80;95.00;;;;;;5053026;28;20198;-78
2022/09/01 03:29:38;;;;;;;3.45;1.50;;;17.70;95.50;;;;;;5044571;28;20210;-78
2022/09/01 03:32:06;;;;;;;2.00;1.48;;;17.70;95.70;;;;;;5064362;28;20555;-78
2022/09/01 03:34:35;;;;;;;2.33;1.50;;;17.60;96.10;;;;;;5062709;28;20213;-78
2022/09/01 03:37:08;;;;;;;7.13;1.48;;;17.50;96.30;;;;;;5064426;28;20202;-78
2022/09/01 03:39:36;;;;;;;3.65;1.50;;;17.50;96.60;;;;;;5046372;28;20211;-78
2022/09/01 03:42:04;;;;;;;2.08;1.27;;;17.50;96.40;;;;;;5047043;28;20199;-78
2022/09/01 03:44:39;;;;;;;3.10;1.30;;;17.60;96.40;;;;;;5065409;28;20198;-78
2022/09/01 03:47:10;;;;;;;1.65;1.48;;;17.60;96.10;;;;;;5046293;28;20198;-77
2022/09/01 03:49:38;;;;;;;2.28;1.30;;;17.80;95.80;;;;;;5045312;28;20218;-77
2022/09/01 03:52:07;;;;;;;1.73;1.35;;;17.80;95.50;;;;;;5061278;28;20207;-77
2022/09/01 03:54:35;;;;;;;2.40;1.23;;;17.60;95.70;;;;;;5064471;28;20190;-77
2022/09/01 03:57:04;;;;;;;2.28;1.55;;;17.70;95.90;;;;;;5046146;28;20194;-77
2022/09/01 03:59:33;;;;;;;1.73;1.35;;;17.70;95.30;;;;;;5061176;28;20210;-77
2022/09/01 04:02:02;;;;;;;2.67;1.40;;;17.60;95.70;;;;;;5046381;28;20206;-78
2022/09/01 04:04:31;;;;;;;2.33;1.30;;;17.70;96.00;;;;;;5046960;28;20194;-78
2022/09/01 04:07:00;;;;;;;3.17;1.70;;;17.80;95.40;;;;;;5044168;28;20203;-77
2022/09/01 04:09:27;;;;;;;2.38;1.50;;;17.30;96.50;;;;;;5041122;28;20226;-77
2022/09/01 04:11:55;;;;;;;1.40;1.30;;;16.60;98.60;;;;;;5067804;28;20198;-78
2022/09/01 04:14:24;;;;;;;3.45;1.70;;;16.70;99.40;;;;;;5062065;28;20202;-77
2022/09/01 04:19:39;;;;;;;3.78;1.63;;;16.70;99.90;;;;;;5044868;28;20223;-77
2022/09/01 04:22:12;;;;;;;3.67;1.83;;;16.60;99.90;;;;;;5062865;28;20221;-77
2022/09/01 04:24:44;;;;;;;2.70;1.27;;;16.90;99.90;;;;;;5045168;28;20198;-77
2022/09/01 04:27:12;;;;;;;2.40;1.23;;;16.90;99.70;;;;;;5038672;28;20191;-77
2022/09/01 04:29:40;;;;;;;2.28;2.08;;;16.90;98.90;;;;;;5063358;28;20702;-77
2022/09/01 04:32:11;;;;;;;3.58;2.08;;;16.70;99.70;;;;;;5048326;28;20199;-77
2022/09/01 04:34:41;;;;;;;3.42;1.67;;;16.70;99.90;;;;;;5048928;28;20221;-77
2022/09/01 04:37:13;;;;;;;1.88;1.30;;;16.60;99.90;;;;;;5049819;28;20199;-77
2022/09/01 04:39:47;;;;;;;2.65;1.70;;;16.40;99.90;;;;;;5044003;28;20585;-77
2022/09/01 04:42:17;;;;;;;1.83;1.55;;;16.60;99.90;;;;;;5049237;28;20194;-77
2022/09/01 04:44:45;;;;;;;2.38;1.50;;;16.50;99.90;;;;;;5063120;28;20194;-77
2022/09/01 04:47:15;;;;;;;2.20;1.42;;;16.40;99.90;;;;;;5052026;28;20198;-77
2022/09/01 04:49:44;;;;;;;2.50;1.70;;;16.50;99.90;;;;;;5056064;28;20222;-77
2022/09/01 04:52:12;;;;;;;3.35;1.55;;;16.50;99.90;;;;;;5049269;28;20202;-78
2022/09/01 04:54:40;;;;;;;1.77;1.40;;;16.40;99.90;;;;;;5043835;28;20206;-77
2022/09/01 04:57:10;;;;;;;3.28;1.70;;;16.60;99.90;;;;;;5064088;28;20195;-77
2022/09/01 05:00:21;;;;;;;4.13;1.58;;;16.50;99.90;;;;;;5047049;28;20214;-77
2022/09/01 05:02:52;;;;;;;2.63;1.60;;;16.60;99.90;;;;;;5048591;28;20217;-77
2022/09/01 05:05:21;;;;;;;1.98;1.30;;;16.60;99.90;;;;;;5062155;28;20198;-77
2022/09/01 05:07:54;;;;;;;1.70;1.45;;;16.60;99.90;;;;;;5064846;28;20209;-77
2022/09/01 05:10:28;;;;;;;4.60;1.38;;;16.60;99.90;;;;;;5050622;28;20309;-77
2022/09/01 05:13:16;;;;;;;2.10;1.33;;;16.60;99.90;;;;;;5038145;28;20206;-77
2022/09/01 05:15:46;;;;;;;2.13;1.60;;;16.60;99.90;;;;;;5040390;28;20194;-77
2022/09/01 05:18:22;;;;;;;3.17;1.40;;;16.70;99.90;;;;;;5044524;28;20226;-77
2022/09/01 05:20:51;;;;;;;2.10;1.30;;;16.80;99.80;;;;;;5048845;28;20202;-77
2022/09/01 05:23:32;;;;;;;2.65;1.30;;;16.90;98.80;;;;;;5041702;28;20671;-77
2022/09/01 05:26:02;;;;;;;1.63;1.20;;;16.80;99.20;;;;;;5065052;28;20691;-77
2022/09/01 05:28:31;;;;;;;1.98;1.30;;;17.00;98.30;;;;;;5044937;28;20225;-77
2022/09/01 05:31:00;;;;;;;4.32;1.42;;;17.10;98.30;;;;;;5042428;28;20194;-77
2022/09/01 05:33:30;;;;;;;2.30;1.40;;;17.10;97.80;;;;;;5042010;28;20191;-77
2022/09/01 05:36:00;;;;;;;3.45;1.60;;;17.10;97.80;;;;;;5054467;28;20191;-78
2022/09/01 05:38:43;;;;;;;1.55;1.45;;;17.00;98.30;;;;;;5043336;28;20215;-77
2022/09/01 05:41:14;;;;;;;2.17;1.55;;;17.20;97.60;;;;;;5059393;28;20223;-77
2022/09/01 05:43:45;;;;;;;2.40;1.10;;;17.10;97.80;;;;;;5066569;28;20644;-78
2022/09/01 05:46:25;;;;;;;3.47;1.75;;;17.10;97.80;;;;;;5050063;28;20682;-78
2022/09/01 05:48:55;;;;;;;3.28;1.95;;;17.10;97.90;;;;;;5061456;28;20233;-78
2022/09/01 05:51:26;;;;;;;1.95;1.63;;;17.00;98.70;;;;;;5061173;28;20195;-78
2022/09/01 05:53:58;;;;;;;3.70;1.35;;;17.20;97.80;;;;;;5064508;28;20198;-77
2022/09/01 05:56:29;;;;;;;4.88;2.00;;;17.20;98.00;;;;;;5047228;28;20572;-78
2022/09/01 05:58:58;;;;;;;2.70;1.75;;;17.30;98.00;;;;;;5045050;28;20221;-77
2022/09/01 06:01:40;;;;;;;4.30;1.50;;;17.30;98.00;;;;;;5046923;28;20209;-78
2022/09/01 06:04:29;;;;;;;2.60;1.52;;;17.40;98.00;;;;;;5049799;28;20198;-78
2022/09/01 06:07:08;;;;;;;3.75;1.30;;;17.30;98.00;;;;;;5044545;28;20205;-79
2022/09/01 06:09:38;;;;;;;4.35;1.30;;;17.40;98.20;;;;;;5041691;28;20249;-78
2022/09/01 06:12:17;;;;;;;5.10;1.67;;;17.40;97.60;;;;;;5043571;28;20222;-78
2022/09/01 06:14:46;;;;;;;1.60;1.50;;;17.50;97.70;;;;;;5045854;28;20197;-80
2022/09/01 06:17:17;;;;;;;3.30;1.63;;;17.50;97.20;;;;;;5061397;28;20199;-78
2022/09/01 06:19:47;;;;;;;2.65;1.20;;;17.40;97.30;;;;;;5039378;28;20214;-80
2022/09/01 06:22:15;;;;;;;3.13;1.50;;;17.40;97.40;;;;;;5045366;28;20194;-78
2022/09/01 06:24:54;;;;;;;3.30;1.55;;;17.50;97.30;;;;;;5048324;28;20198;-78
2022/09/01 06:27:56;;;;;;;4.20;1.45;;;17.60;97.10;;;;;;5040019;28;20195;-79
2022/09/01 06:30:27;;;;;;;4.13;1.75;;;17.90;97.90;;;;;;5063785;28;20198;-79
2022/09/01 06:33:13;;;;;;;1.55;1.10;;;18.20;97.00;;;;;;5047610;28;20207;-79
2022/09/01 06:35:46;;;;;;;5.60;1.63;;;18.20;96.00;;;;;;5048645;28;20201;-80
2022/09/01 06:38:16;;;;;;;16.75;5.50;;;18.20;96.30;;;;;;5046592;28;20592;-78
2022/09/01 06:41:11;;;;;;;8.35;3.28;;;18.50;96.30;;;;;;5059319;28;20218;-79
2022/09/01 06:43:40;;;;;;;14.18;5.07;;;19.00;95.60;;;;;;5046333;28;20652;-78
2022/09/01 06:46:09;;;;;;;8.80;4.13;;;19.10;95.60;;;;;;5056177;28;20206;-80
2022/09/01 06:48:38;;;;;;;7.28;3.13;;;19.30;95.20;;;;;;5037986;28;20214;-79
2022/09/01 06:51:13;;;;;;;8.15;2.00;;;19.50;94.80;;;;;;5060298;28;20202;-77
2022/09/01 06:53:42;;;;;;;8.05;2.17;;;19.60;94.90;;;;;;5044634;28;20251;-77
2022/09/01 06:56:13;;;;;;;3.75;1.92;;;19.80;94.60;;;;;;5064131;28;20569;-79
2022/09/01 06:58:45;;;;;;;2.65;1.38;;;19.90;93.20;;;;;;5058634;28;20221;-79
2022/09/01 07:01:19;;;;;;;3.95;1.55;;;19.40;92.70;;;;;;5040498;28;20578;-77
2022/09/01 07:03:51;;;;;;;4.63;1.92;;;19.50;94.30;;;;;;5041966;28;20209;-78
2022/09/01 07:06:36;;;;;;;3.05;1.55;;;19.30;92.90;;;;;;5046602;28;20198;-78
2022/09/01 07:09:30;;;;;;;4.88;1.30;;;19.30;93.00;;;;;;5031526;28;20230;-78
2022/09/01 07:12:24;;;;;;;3.35;1.50;;;19.50;92.80;;;;;;5026801;28;20207;-78
2022/09/01 07:14:52;;;;;;;2.85;1.55;;;19.80;92.60;;;;;;5052606;28;20222;-78
2022/09/01 07:17:21;;;;;;;2.00;1.40;;;19.70;92.00;;;;;;5057858;28;20190;-78
2022/09/01 07:19:49;;;;;;;3.45;1.55;;;19.80;92.50;;;;;;5066450;28;20889;-78
2022/09/01 07:22:18;;;;;;;2.08;1.38;;;20.00;92.00;;;;;;5037652;28;20551;-78
2022/09/01 07:24:56;;;;;;;2.60;1.20;;;19.40;91.70;;;;;;5042885;28;20201;-78
2022/09/01 07:27:58;;;;;;;1.50;1.23;;;19.50;92.40;;;;;;5028349;28;20229;-79
2022/09/01 07:30:27;;;;;;;2.40;1.63;;;20.00;92.10;;;;;;5049944;28;20191;-78
2022/09/01 07:32:56;;;;;;;4.53;1.40;;;19.80;91.50;;;;;;5064512;28;20210;-78
2022/09/01 07:35:30;;;;;;;1.92;1.10;;;19.80;91.70;;;;;;5046705;28;20206;-78
2022/09/01 07:37:58;;;;;;;1.35;1.13;;;19.70;91.90;;;;;;5044277;28;20214;-78
2022/09/01 07:40:27;;;;;;;1.10;1.00;;;19.70;92.00;;;;;;5063408;28;20219;-79
2022/09/01 07:42:59;;;;;;;3.92;1.45;;;19.90;91.60;;;;;;5042748;28;20195;-78
2022/09/01 07:45:58;;;;;;;1.88;1.23;;;19.80;91.60;;;;;;5051400;28;20186;-78
2022/09/01 07:48:28;;;;;;;3.28;1.60;;;19.80;91.60;;;;;;5054089;28;20297;-78
2022/09/01 07:50:56;;;;;;;4.90;1.50;;;20.00;91.40;;;;;;5069896;28;20197;-78
2022/09/01 07:53:30;;;;;;;2.92;1.05;;;19.90;91.00;;;;;;5047564;28;20664;-78
2022/09/01 07:56:00;;;;;;;3.28;1.65;;;19.90;91.60;;;;;;5064543;28;20558;-78
2022/09/01 07:58:30;;;;;;;2.28;1.30;;;19.80;91.30;;;;;;5050010;28;20229;-78
2022/09/01 08:01:07;;;;;;;2.72;1.20;;;20.20;91.30;;;;;;5050294;28;20214;-78
2022/09/01 08:03:36;;;;;;;2.53;1.10;;;20.50;90.50;;;;;;5044525;28;20198;-78
2022/09/01 08:06:09;;;;;;;3.08;1.50;;;20.50;90.00;;;;;;5042587;28;20203;-78
2022/09/01 08:08:41;;;;;;;4.15;1.15;;;20.30;90.10;;;;;;5050813;28;20230;-79
2022/09/01 08:11:09;;;;;;;3.97;1.48;;;20.70;90.30;;;;;;5048172;28;20195;-79
2022/09/01 08:13:37;;;;;;;3.10;1.30;;;20.50;89.90;;;;;;5068764;28;20206;-77
2022/09/01 08:16:07;;;;;;;2.90;1.60;;;20.50;90.20;;;;;;5052259;28;20213;-77
2022/09/01 08:18:36;;;;;;;1.95;1.08;;;20.80;89.70;;;;;;5064663;28;20222;-79
2022/09/01 08:21:06;;;;;;;3.03;1.30;;;21.00;88.40;;;;;;5053904;28;20229;-77
2022/09/01 08:23:34;;;;;;;1.70;1.10;;;20.90;88.30;;;;;;5051169;28;20202;-78
2022/09/01 08:26:07;;;;;;;2.08;1.02;;;20.90;86.80;;;;;;5055520;28;20205;-79
2022/09/01 08:28:35;;;;;;;3.65;1.02;;;20.70;86.60;;;;;;5066514;28;20211;-79
2022/09/01 08:31:07;;;;;;;2.00;1.08;;;20.80;85.70;;;;;;5056741;28;20205;-80
2022/09/01 08:33:35;;;;;;;2.15;1.02;;;21.00;85.30;;;;;;5045479;28;20198;-80
2022/09/01 08:36:03;;;;;;;2.50;1.10;;;21.10;85.40;;;;;;5049664;28;20557;-79
2022/09/01 08:38:31;;;;;;;2.13;0.98;;;21.00;84.30;;;;;;5043636;28;20233;-79
2022/09/01 08:41:02;;;;;;;1.35;1.00;;;20.90;84.60;;;;;;5049481;28;20225;-80
2022/09/01 08:44:23;;;;;;;;;;;;;;;;;;;;;
2022/09/01 08:47:20;;;;;;;1.95;1.15;;;21.00;84.30;;;;;;4952585;28;21741;-78
2022/09/01 08:49:59;;;;;;;3.20;0.95;;;21.00;82.30;;;;;;4945426;28;20710;-78
2022/09/01 08:52:49;;;;;;;1.73;0.82;;;21.00;81.40;;;;;;4987214;28;20670;-78
2022/09/01 08:55:24;;;;;;;3.33;1.20;;;21.20;81.30;;;;;;5049294;28;20683;-77
2022/09/01 08:57:56;;;;;;;1.23;0.98;;;21.30;81.20;;;;;;5050417;28;20212;-77
2022/09/01 09:00:35;;;;;;;3.38;1.35;;;21.40;79.40;;;;;;5049783;28;20191;-77
2022/09/01 09:03:17;;;;;;;4.95;1.13;;;21.50;80.20;;;;;;5062985;28;20218;-76
2022/09/01 09:06:04;;;;;;;1.65;0.98;;;21.60;80.10;;;;;;5051745;28;20201;-77
2022/09/01 09:09:07;;;;;;;19.50;11.23;;;21.50;79.50;;;;;;5046578;28;20237;-78
2022/09/01 09:12:09;;;;;;;5.20;2.20;;;21.80;81.80;;;;;;5049757;28;20202;-78
2022/09/01 09:15:13;;;;;;;4.22;2.70;;;21.80;79.10;;;;;;5043525;28;20199;-78
2022/09/01 09:17:55;;;;;;;4.10;2.17;;;21.90;78.00;;;;;;5046715;28;20825;-78
2022/09/01 09:20:26;;;;;;;6.15;3.35;;;21.90;77.30;;;;;;5041785;28;20195;-78
2022/09/01 09:22:56;;;;;;;2.20;1.30;;;22.00;78.00;;;;;;5051966;28;20210;-80
2022/09/01 09:25:24;;;;;;;4.57;2.28;;;22.00;75.50;;;;;;5067394;28;20701;-78
2022/09/01 09:28:08;;;;;;;1.27;0.90;;;22.00;76.80;;;;;;5047717;28;20203;-77
2022/09/01 09:30:41;;;;;;;3.00;1.17;;;21.80;73.90;;;;;;5039049;28;20198;-78
2022/09/01 09:33:38;;;;;;;1.95;1.00;;;21.90;74.70;;;;;;5036062;28;20193;-78
2022/09/01 09:36:19;;;;;;;3.00;1.73;;;22.00;74.70;;;;;;5048390;28;20664;-77
2022/09/01 09:39:20;;;;;;;2.05;1.00;;;22.00;74.60;;;;;;5044935;28;20218;-77
2022/09/01 09:42:07;;;;;;;3.15;1.15;;;22.00;74.10;;;;;;5062823;28;20221;-77
2022/09/01 09:44:43;;;;;;;1.52;1.20;;;22.10;73.30;;;;;;5041774;28;20201;-77
2022/09/01 09:47:29;;;;;;;1.17;1.08;;;22.00;73.40;;;;;;5044000;28;20198;-77
2022/09/01 09:50:13;;;;;;;3.75;1.08;;;22.10;73.10;;;;;;5063360;28;20230;-77
2022/09/01 09:52:47;;;;;;;1.40;1.05;;;22.30;73.00;;;;;;5046154;28;20197;-77
2022/09/01 09:55:24;;;;;;;1.83;1.00;;;22.20;71.60;;;;;;5055922;28;20203;-77
2022/09/01 09:57:57;;;;;;;1.30;1.10;;;22.30;71.70;;;;;;5066563;28;20212;-78
2022/09/01 10:00:28;;;;;;;2.00;0.82;;;22.40;72.20;;;;;;5052184;28;20217;-77
2022/09/01 10:03:01;;;;;;;3.20;1.05;;;22.60;71.50;;;;;;5045434;28;20223;-78
2022/09/01 10:05:38;;;;;;;2.83;1.10;;;22.60;70.80;;;;;;5048965;28;20195;-78
2022/09/01 10:08:07;;;;;;;2.83;0.98;;;22.70;70.70;;;;;;5067791;28;20224;-78
2022/09/01 10:10:40;;;;;;;1.20;1.02;;;22.50;70.70;;;;;;5050702;28;20285;-78
2022/09/01 10:13:11;;;;;;;1.50;1.00;;;22.60;71.40;;;;;;5062278;28;20578;-78
2022/09/01 10:15:40;;;;;;;2.35;1.35;;;22.70;71.30;;;;;;5063887;28;20201;-77
2022/09/01 10:18:30;;;;;;;5.55;1.20;;;22.80;71.50;;;;;;5050063;28;20226;-77
2022/09/01 10:21:22;;;;;;;4.55;1.13;;;22.80;71.90;;;;;;5040672;28;20202;-77
2022/09/01 10:24:06;;;;;;;2.88;1.30;;;23.10;71.50;;;;;;5065813;28;20194;-77
2022/09/01 10:26:38;;;;;;;2.25;0.93;;;23.30;70.70;;;;;;5043894;28;20679;-77
2022/09/01 10:29:09;;;;;;;1.88;1.17;;;23.40;69.90;;;;;;5041655;28;20218;-77
2022/09/01 10:31:37;;;;;;;1.73;1.33;;;23.40;68.10;;;;;;5063913;28;20660;-77
2022/09/01 10:34:06;;;;;;;1.00;0.80;;;23.00;67.50;;;;;;5049951;28;20206;-77
2022/09/01 10:36:36;;;;;;;1.85;1.15;;;23.10;68.10;;;;;;5047117;28;20213;-76
2022/09/01 10:39:04;;;;;;;2.58;1.20;;;23.20;68.50;;;;;;5058404;28;20234;-76
2022/09/01 10:41:50;;;;;;;2.13;1.17;;;23.20;67.70;;;;;;5060674;28;20191;-76
2022/09/01 10:44:29;;;;;;;2.85;1.35;;;23.20;67.10;;;;;;5040887;28;20198;-76
2022/09/01 10:46:58;;;;;;;2.72;1.88;;;23.40;67.40;;;;;;5045386;28;20555;-76
2022/09/01 10:50:01;;;;;;;1.83;1.38;;;23.40;67.00;;;;;;5049988;28;20221;-77
2022/09/01 10:52:56;;;;;;;3.33;1.40;;;23.60;66.90;;;;;;5046477;28;20197;-77
2022/09/01 10:55:26;;;;;;;1.48;1.27;;;23.80;65.30;;;;;;5039534;28;20206;-77
2022/09/01 10:58:03;;;;;;;2.22;1.80;;;23.90;64.80;;;;;;5045859;28;20221;-77
2022/09/01 11:00:51;;;;;;;2.35;1.33;;;24.00;65.70;;;;;;5041228;28;20191;-77
2022/09/01 11:03:53;;;;;;;1.90;1.40;;;24.00;65.20;;;;;;5044791;28;20218;-78
2022/09/01 11:06:57;;;;;;;3.00;1.60;;;24.00;65.60;;;;;;5033069;28;20194;-77
2022/09/01 11:09:29;;;;;;;2.30;1.50;;;24.10;64.80;;;;;;5063510;28;20217;-77
2022/09/01 11:12:19;;;;;;;1.92;1.33;;;24.00;64.20;;;;;;5048567;28;20210;-78
2022/09/01 11:14:52;;;;;;;2.28;1.45;;;24.10;65.10;;;;;;5047084;28;20676;-78
2022/09/01 11:17:26;;;;;;;1.52;1.42;;;24.20;64.10;;;;;;5059074;28;20202;-78
2022/09/01 11:20:01;;;;;;;5.10;1.60;;;24.30;63.50;;;;;;5063623;28;20225;-78
2022/09/01 11:22:43;;;;;;;2.13;1.40;;;24.20;62.30;;;;;;5065533;28;20210;-78
2022/09/01 11:25:42;;;;;;;1.75;1.40;;;24.60;63.10;;;;;;5049574;28;20198;-78
2022/09/01 11:28:43;;;;;;;2.50;1.40;;;24.90;62.60;;;;;;5050114;28;20229;-78
2022/09/01 11:31:33;;;;;;;2.45;1.30;;;24.70;61.80;;;;;;5059578;28;20665;-78
2022/09/01 11:34:27;;;;;;;2.30;1.40;;;24.60;61.80;;;;;;5045100;28;20198;-77
2022/09/01 11:37:02;;;;;;;1.67;1.50;;;25.00;60.70;;;;;;5060658;28;20209;-77
2022/09/01 11:39:42;;;;;;;3.25;1.73;;;25.10;59.80;;;;;;5047148;28;20589;-77
2022/09/01 11:42:18;;;;;;;2.30;1.30;;;25.30;59.20;;;;;;5036116;28;20209;-77
2022/09/01 11:44:52;;;;;;;3.75;1.50;;;25.50;58.20;;;;;;5061887;28;20194;-79
2022/09/01 11:47:24;;;;;;;3.33;1.63;;;25.60;57.10;;;;;;5045302;28;20194;-78
2022/09/01 11:49:55;;;;;;;2.90;1.52;;;25.90;56.20;;;;;;5061202;28;20226;-78
2022/09/01 11:52:26;;;;;;;2.50;1.50;;;25.80;55.00;;;;;;5067458;28;20198;-78
2022/09/01 11:54:54;;;;;;;1.73;1.40;;;25.80;55.30;;;;;;5063377;28;20199;-78
2022/09/01 11:57:26;;;;;;;3.33;1.58;;;25.90;55.60;;;;;;5048006;28;20207;-78
2022/09/01 11:59:54;;;;;;;1.75;1.40;;;25.60;55.80;;;;;;5044366;28;20226;-78
2022/09/01 12:02:25;;;;;;;1.73;1.48;;;25.90;54.90;;;;;;5056752;28;20230;-78
2022/09/01 12:04:54;;;;;;;2.65;1.52;;;25.70;55.50;;;;;;5047345;28;20211;-78
2022/09/01 12:07:44;;;;;;;5.38;1.60;;;25.90;56.10;;;;;;5042630;28;20190;-78
2022/09/01 12:10:19;;;;;;;1.52;1.38;;;25.60;55.00;;;;;;5061991;28;20199;-78
2022/09/01 12:13:12;;;;;;;2.13;1.50;;;25.90;54.60;;;;;;5058920;28;20182;-78
2022/09/01 12:15:42;;;;;;;2.20;1.50;;;26.10;53.50;;;;;;5061765;28;20203;-78
2022/09/01 12:18:13;;;;;;;3.22;1.50;;;26.10;53.00;;;;;;5049733;28;20223;-78
2022/09/01 12:20:41;;;;;;;2.22;1.50;;;26.20;52.50;;;;;;5047270;28;20206;-78
2022/09/01 12:23:24;;;;;;;2.22;1.20;;;26.30;53.10;;;;;;5064251;28;20221;-78
2022/09/01 12:25:54;;;;;;;3.78;1.45;;;26.40;52.70;;;;;;5042525;28;20210;-79
2022/09/01 12:28:24;;;;;;;2.15;1.50;;;26.70;51.40;;;;;;5045863;28;20711;-78
2022/09/01 12:30:54;;;;;;;4.45;1.52;;;26.70;51.70;;;;;;5057869;28;20210;-77
2022/09/01 12:33:21;;;;;;;1.10;0.98;;;26.60;50.50;;;;;;5046307;28;20199;-78
2022/09/01 12:35:49;;;;;;;2.55;1.63;;;26.70;50.30;;;;;;5049690;28;20225;-78
2022/09/01 12:38:22;;;;;;;1.77;1.25;;;26.50;50.10;;;;;;5043255;28;20707;-78
2022/09/01 12:40:52;;;;;;;1.50;1.40;;;26.40;49.60;;;;;;5060137;28;20198;-77
2022/09/01 12:43:41;;;;;;;1.63;1.30;;;26.70;49.50;;;;;;5042208;28;20703;-77
2022/09/01 12:46:09;;;;;;;3.15;1.70;;;27.00;48.70;;;;;;5057964;28;20213;-77
2022/09/01 12:48:39;;;;;;;1.13;1.10;;;27.10;48.10;;;;;;5039697;28;20218;-77
2022/09/01 12:51:18;;;;;;;1.50;1.20;;;27.20;48.10;;;;;;5063118;28;20205;-77
2022/09/01 12:53:52;;;;;;;2.70;1.42;;;27.60;47.10;;;;;;5046201;28;20190;-77
2022/09/01 12:56:31;;;;;;;1.67;1.40;;;27.80;45.70;;;;;;5047352;28;20198;-77
2022/09/01 12:59:13;;;;;;;1.95;1.40;;;27.40;45.90;;;;;;5038229;28;20221;-77
2022/09/01 13:01:41;;;;;;;3.50;1.40;;;26.90;45.90;;;;;;5042765;28;20225;-77
2022/09/01 13:04:22;;;;;;;2.58;1.23;;;27.30;45.70;;;;;;5040248;28;20226;-77
2022/09/01 13:06:50;;;;;;;2.80;1.20;;;27.30;45.90;;;;;;5060086;28;20220;-77
2022/09/01 13:09:18;;;;;;;1.30;1.10;;;27.60;44.60;;;;;;5055981;28;20237;-77
2022/09/01 13:11:47;;;;;;;5.97;1.33;;;27.90;44.90;;;;;;5043794;28;20202;-77
2022/09/01 13:14:17;;;;;;;2.38;1.60;;;28.10;43.40;;;;;;5063190;28;20195;-77
2022/09/01 13:16:45;;;;;;;2.53;1.23;;;28.00;42.90;;;;;;5042538;28;20209;-77
2022/09/01 13:19:23;;;;;;;2.95;1.42;;;27.90;43.20;;;;;;5035211;28;20227;-77
2022/09/01 13:21:50;;;;;;;1.90;1.60;;;27.90;42.40;;;;;;5048823;28;20198;-77
2022/09/01 13:24:18;;;;;;;1.85;1.75;;;28.30;42.60;;;;;;5047031;28;20210;-76
2022/09/01 13:26:53;;;;;;;1.92;1.00;;;28.40;41.30;;;;;;5058477;28;20668;-77
2022/09/01 13:29:22;;;;;;;3.05;1.02;;;28.00;41.60;;;;;;5045618;28;20217;-76